sensor_id;sensor_type;location;lat;lon;timestamp;P1;durP1;ratioP1;P2;durP2;ratioP2
48911;SDS011;34722;52.108;5.044;2023-08-21T00:00:30;12.52;;;3.80;;
48911;SDS011;34722;52.108;5.044;2023-08-21T00:05:31;8.55;;;3.83;;
48911;SDS011;34722;52.108;5.044;2023-08-21T00:07:57;8.82;;;5.07;;
48911;SDS011;34722;52.108;5.044;2023-08-21T00:10:23;10.73;;;4.93;;
48911;SDS011;34722;52.108;5.044;2023-08-21T00:12:48;8.77;;;5.05;;
48911;SDS011;34722;52.108;5.044;2023-08-21T00:15:14;11.52;;;4.63;;
48911;SDS011;34722;52.108;5.044;2023-08-21T00:17:40;7.70;;;4.03;;
48911;SDS011;34722;52.108;5.044;2023-08-21T00:20:06;9.05;;;3.72;;
48911;SDS011;34722;52.108;5.044;2023-08-21T00:22:34;10.05;;;4.70;;
48911;SDS011;34722;52.108;5.044;2023-08-21T00:25:00;6.18;;;3.88;;
48911;SDS011;34722;52.108;5.044;2023-08-21T00:27:26;12.93;;;5.20;;
48911;SDS011;34722;52.108;5.044;2023-08-21T00:30:04;6.93;;;4.60;;
48911;SDS011;34722;52.108;5.044;2023-08-21T00:32:30;7.75;;;4.20;;
48911;SDS011;34722;52.108;5.044;2023-08-21T00:34:56;10.70;;;4.20;;
48911;SDS011;34722;52.108;5.044;2023-08-21T00:37:21;11.57;;;4.50;;
48911;SDS011;34722;52.108;5.044;2023-08-21T00:39:47;8.77;;;4.10;;
48911;SDS011;34722;52.108;5.044;2023-08-21T00:42:13;8.63;;;4.47;;
48911;SDS011;34722;52.108;5.044;2023-08-21T00:44:38;10.65;;;3.85;;
48911;SDS011;34722;52.108;5.044;2023-08-21T00:47:04;8.35;;;3.78;;
48911;SDS011;34722;52.108;5.044;2023-08-21T00:49:29;8.73;;;4.25;;
48911;SDS011;34722;52.108;5.044;2023-08-21T00:51:56;10.50;;;4.15;;
48911;SDS011;34722;52.108;5.044;2023-08-21T00:54:22;7.50;;;3.40;;
48911;SDS011;34722;52.108;5.044;2023-08-21T00:56:47;7.28;;;3.35;;
48911;SDS011;34722;52.108;5.044;2023-08-21T00:59:13;7.70;;;3.45;;
48911;SDS011;34722;52.108;5.044;2023-08-21T01:01:39;8.80;;;3.80;;
48911;SDS011;34722;52.108;5.044;2023-08-21T01:04:05;4.85;;;3.03;;
48911;SDS011;34722;52.108;5.044;2023-08-21T01:06:31;8.75;;;3.50;;
48911;SDS011;34722;52.108;5.044;2023-08-21T01:08:58;11.77;;;4.38;;
48911;SDS011;34722;52.108;5.044;2023-08-21T01:14:21;7.80;;;3.50;;
48911;SDS011;34722;52.108;5.044;2023-08-21T01:17:03;7.43;;;3.17;;
48911;SDS011;34722;52.108;5.044;2023-08-21T01:19:35;4.97;;;3.15;;
48911;SDS011;34722;52.108;5.044;2023-08-21T01:22:05;9.93;;;4.03;;
48911;SDS011;34722;52.108;5.044;2023-08-21T01:24:31;10.38;;;3.50;;
48911;SDS011;34722;52.108;5.044;2023-08-21T01:26:57;4.68;;;3.10;;
48911;SDS011;34722;52.108;5.044;2023-08-21T01:29:22;6.70;;;2.78;;
48911;SDS011;34722;52.108;5.044;2023-08-21T01:34:26;8.73;;;3.13;;
48911;SDS011;34722;52.108;5.044;2023-08-21T01:36:53;8.85;;;3.10;;
48911;SDS011;34722;52.108;5.044;2023-08-21T01:39:19;10.27;;;3.05;;
48911;SDS011;34722;52.108;5.044;2023-08-21T01:41:46;6.10;;;2.83;;
48911;SDS011;34722;52.108;5.044;2023-08-21T01:44:11;10.60;;;3.50;;
48911;SDS011;34722;52.108;5.044;2023-08-21T01:46:37;6.90;;;2.90;;
48911;SDS011;34722;52.108;5.044;2023-08-21T01:49:03;7.18;;;3.25;;
48911;SDS011;34722;52.108;5.044;2023-08-21T01:51:28;9.30;;;4.13;;
48911;SDS011;34722;52.108;5.044;2023-08-21T01:53:54;6.63;;;3.28;;
48911;SDS011;34722;52.108;5.044;2023-08-21T01:56:20;9.00;;;3.38;;
48911;SDS011;34722;52.108;5.044;2023-08-21T01:58:45;8.77;;;3.63;;
48911;SDS011;34722;52.108;5.044;2023-08-21T02:01:11;10.40;;;3.92;;
48911;SDS011;34722;52.108;5.044;2023-08-21T02:03:36;9.68;;;4.00;;
48911;SDS011;34722;52.108;5.044;2023-08-21T02:06:02;6.15;;;3.83;;
48911;SDS011;34722;52.108;5.044;2023-08-21T02:08:30;6.82;;;3.35;;
48911;SDS011;34722;52.108;5.044;2023-08-21T02:10:59;7.15;;;3.13;;
48911;SDS011;34722;52.108;5.044;2023-08-21T02:13:25;7.72;;;3.85;;
48911;SDS011;34722;52.108;5.044;2023-08-21T02:15:51;5.45;;;3.00;;
48911;SDS011;34722;52.108;5.044;2023-08-21T02:18:17;7.07;;;3.65;;
48911;SDS011;34722;52.108;5.044;2023-08-21T02:20:42;8.57;;;4.60;;
48911;SDS011;34722;52.108;5.044;2023-08-21T02:23:08;7.50;;;3.13;;
48911;SDS011;34722;52.108;5.044;2023-08-21T02:25:35;7.78;;;3.40;;
48911;SDS011;34722;52.108;5.044;2023-08-21T02:28:01;8.00;;;3.83;;
48911;SDS011;34722;52.108;5.044;2023-08-21T02:30:27;9.27;;;4.13;;
48911;SDS011;34722;52.108;5.044;2023-08-21T02:32:53;13.52;;;3.88;;
48911;SDS011;34722;52.108;5.044;2023-08-21T02:35:22;15.18;;;4.53;;
48911;SDS011;34722;52.108;5.044;2023-08-21T02:37:48;6.50;;;3.80;;
48911;SDS011;34722;52.108;5.044;2023-08-21T02:40:14;6.70;;;3.80;;
48911;SDS011;34722;52.108;5.044;2023-08-21T02:42:40;9.98;;;4.03;;
48911;SDS011;34722;52.108;5.044;2023-08-21T02:45:06;7.32;;;3.75;;
48911;SDS011;34722;52.108;5.044;2023-08-21T02:47:38;10.63;;;4.28;;
48911;SDS011;34722;52.108;5.044;2023-08-21T02:50:04;7.32;;;3.90;;
48911;SDS011;34722;52.108;5.044;2023-08-21T02:52:31;8.10;;;3.83;;
48911;SDS011;34722;52.108;5.044;2023-08-21T02:54:57;12.18;;;4.05;;
48911;SDS011;34722;52.108;5.044;2023-08-21T02:57:24;8.77;;;3.67;;
48911;SDS011;34722;52.108;5.044;2023-08-21T02:59:50;15.27;;;4.80;;
48911;SDS011;34722;52.108;5.044;2023-08-21T03:02:15;14.68;;;4.30;;
48911;SDS011;34722;52.108;5.044;2023-08-21T03:04:42;8.25;;;4.28;;
48911;SDS011;34722;52.108;5.044;2023-08-21T03:07:07;9.18;;;4.55;;
48911;SDS011;34722;52.108;5.044;2023-08-21T03:09:33;9.10;;;4.55;;
48911;SDS011;34722;52.108;5.044;2023-08-21T03:11:59;12.25;;;4.63;;
48911;SDS011;34722;52.108;5.044;2023-08-21T03:14:26;10.88;;;4.88;;
48911;SDS011;34722;52.108;5.044;2023-08-21T03:16:51;8.80;;;4.38;;
48911;SDS011;34722;52.108;5.044;2023-08-21T03:19:17;9.32;;;3.95;;
48911;SDS011;34722;52.108;5.044;2023-08-21T03:21:43;15.13;;;5.10;;
48911;SDS011;34722;52.108;5.044;2023-08-21T03:24:08;9.70;;;4.68;;
48911;SDS011;34722;52.108;5.044;2023-08-21T03:26:34;10.77;;;4.72;;
48911;SDS011;34722;52.108;5.044;2023-08-21T03:28:59;13.40;;;4.72;;
48911;SDS011;34722;52.108;5.044;2023-08-21T03:31:25;9.73;;;4.57;;
48911;SDS011;34722;52.108;5.044;2023-08-21T03:33:51;10.85;;;4.93;;
48911;SDS011;34722;52.108;5.044;2023-08-21T03:36:16;6.85;;;4.88;;
48911;SDS011;34722;52.108;5.044;2023-08-21T03:38:42;7.53;;;5.00;;
48911;SDS011;34722;52.108;5.044;2023-08-21T03:41:08;11.98;;;5.25;;
48911;SDS011;34722;52.108;5.044;2023-08-21T03:43:33;10.02;;;3.95;;
48911;SDS011;34722;52.108;5.044;2023-08-21T03:45:59;8.95;;;4.68;;
48911;SDS011;34722;52.108;5.044;2023-08-21T03:48:25;9.05;;;4.18;;
48911;SDS011;34722;52.108;5.044;2023-08-21T03:50:50;12.25;;;4.88;;
48911;SDS011;34722;52.108;5.044;2023-08-21T03:53:19;10.80;;;5.32;;
48911;SDS011;34722;52.108;5.044;2023-08-21T03:55:44;6.70;;;3.88;;
48911;SDS011;34722;52.108;5.044;2023-08-21T03:58:13;14.27;;;5.18;;
48911;SDS011;34722;52.108;5.044;2023-08-21T04:00:40;7.95;;;4.00;;
48911;SDS011;34722;52.108;5.044;2023-08-21T04:03:05;8.80;;;4.30;;
48911;SDS011;34722;52.108;5.044;2023-08-21T04:05:31;6.72;;;4.18;;
48911;SDS011;34722;52.108;5.044;2023-08-21T04:07:57;7.15;;;4.00;;
48911;SDS011;34722;52.108;5.044;2023-08-21T04:10:22;11.57;;;3.83;;
48911;SDS011;34722;52.108;5.044;2023-08-21T04:12:48;6.68;;;3.67;;
48911;SDS011;34722;52.108;5.044;2023-08-21T04:15:13;10.60;;;3.88;;
48911;SDS011;34722;52.108;5.044;2023-08-21T04:17:39;8.05;;;4.28;;
48911;SDS011;34722;52.108;5.044;2023-08-21T04:20:05;11.15;;;4.53;;
48911;SDS011;34722;52.108;5.044;2023-08-21T04:22:31;8.55;;;3.60;;
48911;SDS011;34722;52.108;5.044;2023-08-21T04:25:00;11.55;;;4.85;;
48911;SDS011;34722;52.108;5.044;2023-08-21T04:27:26;7.50;;;4.03;;
48911;SDS011;34722;52.108;5.044;2023-08-21T04:29:52;9.10;;;4.68;;
48911;SDS011;34722;52.108;5.044;2023-08-21T04:32:18;8.80;;;5.20;;
48911;SDS011;34722;52.108;5.044;2023-08-21T04:34:44;10.63;;;4.38;;
48911;SDS011;34722;52.108;5.044;2023-08-21T04:37:09;8.90;;;4.47;;
48911;SDS011;34722;52.108;5.044;2023-08-21T04:39:35;9.50;;;4.75;;
48911;SDS011;34722;52.108;5.044;2023-08-21T04:42:01;8.88;;;4.25;;
48911;SDS011;34722;52.108;5.044;2023-08-21T04:44:27;10.48;;;4.45;;
48911;SDS011;34722;52.108;5.044;2023-08-21T04:46:53;7.90;;;4.82;;
48911;SDS011;34722;52.108;5.044;2023-08-21T04:49:18;8.70;;;3.97;;
48911;SDS011;34722;52.108;5.044;2023-08-21T04:51:44;10.77;;;4.10;;
48911;SDS011;34722;52.108;5.044;2023-08-21T04:54:09;11.10;;;4.60;;
48911;SDS011;34722;52.108;5.044;2023-08-21T04:56:35;6.78;;;4.28;;
48911;SDS011;34722;52.108;5.044;2023-08-21T04:59:01;10.55;;;4.20;;
48911;SDS011;34722;52.108;5.044;2023-08-21T05:01:27;9.20;;;4.40;;
48911;SDS011;34722;52.108;5.044;2023-08-21T05:03:53;13.55;;;5.05;;
48911;SDS011;34722;52.108;5.044;2023-08-21T05:06:19;13.90;;;4.30;;
48911;SDS011;34722;52.108;5.044;2023-08-21T05:08:45;7.68;;;5.60;;
48911;SDS011;34722;52.108;5.044;2023-08-21T05:11:11;12.23;;;5.63;;
48911;SDS011;34722;52.108;5.044;2023-08-21T05:13:36;10.75;;;4.78;;
48911;SDS011;34722;52.108;5.044;2023-08-21T05:16:02;9.48;;;5.47;;
48911;SDS011;34722;52.108;5.044;2023-08-21T05:18:28;7.18;;;4.53;;
48911;SDS011;34722;52.108;5.044;2023-08-21T05:20:54;8.70;;;4.60;;
48911;SDS011;34722;52.108;5.044;2023-08-21T05:23:20;11.40;;;5.50;;
48911;SDS011;34722;52.108;5.044;2023-08-21T05:25:47;11.05;;;5.35;;
48911;SDS011;34722;52.108;5.044;2023-08-21T05:28:14;4.80;;;4.38;;
48911;SDS011;34722;52.108;5.044;2023-08-21T05:30:40;10.35;;;4.72;;
48911;SDS011;34722;52.108;5.044;2023-08-21T05:33:05;11.55;;;4.93;;
48911;SDS011;34722;52.108;5.044;2023-08-21T05:35:35;8.05;;;4.07;;
48911;SDS011;34722;52.108;5.044;2023-08-21T05:38:01;6.68;;;3.70;;
48911;SDS011;34722;52.108;5.044;2023-08-21T05:40:28;9.15;;;3.78;;
48911;SDS011;34722;52.108;5.044;2023-08-21T05:42:53;10.60;;;4.38;;
48911;SDS011;34722;52.108;5.044;2023-08-21T05:45:19;7.75;;;3.60;;
48911;SDS011;34722;52.108;5.044;2023-08-21T05:47:44;9.88;;;4.53;;
48911;SDS011;34722;52.108;5.044;2023-08-21T05:50:10;4.93;;;3.80;;
48911;SDS011;34722;52.108;5.044;2023-08-21T05:52:35;7.32;;;4.18;;
48911;SDS011;34722;52.108;5.044;2023-08-21T05:55:01;11.77;;;4.85;;
48911;SDS011;34722;52.108;5.044;2023-08-21T05:57:27;8.38;;;3.92;;
48911;SDS011;34722;52.108;5.044;2023-08-21T05:59:52;11.82;;;4.22;;
48911;SDS011;34722;52.108;5.044;2023-08-21T06:02:18;12.55;;;4.00;;
48911;SDS011;34722;52.108;5.044;2023-08-21T06:04:48;7.55;;;4.03;;
48911;SDS011;34722;52.108;5.044;2023-08-21T06:07:14;10.38;;;4.13;;
48911;SDS011;34722;52.108;5.044;2023-08-21T06:09:40;9.07;;;3.90;;
48911;SDS011;34722;52.108;5.044;2023-08-21T06:12:06;7.78;;;4.38;;
48911;SDS011;34722;52.108;5.044;2023-08-21T06:14:32;12.73;;;4.97;;
48911;SDS011;34722;52.108;5.044;2023-08-21T06:16:58;7.15;;;5.10;;
48911;SDS011;34722;52.108;5.044;2023-08-21T06:19:25;10.93;;;5.07;;
48911;SDS011;34722;52.108;5.044;2023-08-21T06:21:50;8.90;;;4.90;;
48911;SDS011;34722;52.108;5.044;2023-08-21T06:24:16;10.00;;;4.03;;
48911;SDS011;34722;52.108;5.044;2023-08-21T06:26:41;12.27;;;4.95;;
48911;SDS011;34722;52.108;5.044;2023-08-21T06:29:07;11.02;;;5.07;;
48911;SDS011;34722;52.108;5.044;2023-08-21T06:31:33;9.60;;;4.32;;
48911;SDS011;34722;52.108;5.044;2023-08-21T06:33:58;12.73;;;4.57;;
48911;SDS011;34722;52.108;5.044;2023-08-21T06:36:24;9.98;;;4.30;;
48911;SDS011;34722;52.108;5.044;2023-08-21T06:38:49;9.18;;;4.28;;
48911;SDS011;34722;52.108;5.044;2023-08-21T06:41:15;15.82;;;4.72;;
48911;SDS011;34722;52.108;5.044;2023-08-21T06:43:41;11.00;;;4.45;;
48911;SDS011;34722;52.108;5.044;2023-08-21T06:46:07;10.43;;;4.13;;
48911;SDS011;34722;52.108;5.044;2023-08-21T06:48:33;10.43;;;4.30;;
48911;SDS011;34722;52.108;5.044;2023-08-21T06:51:01;8.43;;;4.05;;
48911;SDS011;34722;52.108;5.044;2023-08-21T06:53:27;7.07;;;4.22;;
48911;SDS011;34722;52.108;5.044;2023-08-21T06:55:53;7.28;;;3.78;;
48911;SDS011;34722;52.108;5.044;2023-08-21T06:58:19;8.60;;;3.85;;
48911;SDS011;34722;52.108;5.044;2023-08-21T07:00:45;9.02;;;4.00;;
48911;SDS011;34722;52.108;5.044;2023-08-21T07:03:11;6.22;;;3.60;;
48911;SDS011;34722;52.108;5.044;2023-08-21T07:05:36;10.63;;;3.78;;
48911;SDS011;34722;52.108;5.044;2023-08-21T07:08:02;8.80;;;4.03;;
48911;SDS011;34722;52.108;5.044;2023-08-21T07:10:28;10.02;;;4.90;;
48911;SDS011;34722;52.108;5.044;2023-08-21T07:12:54;11.20;;;4.38;;
48911;SDS011;34722;52.108;5.044;2023-08-21T07:15:20;7.03;;;4.05;;
48911;SDS011;34722;52.108;5.044;2023-08-21T07:17:46;8.43;;;4.32;;
48911;SDS011;34722;52.108;5.044;2023-08-21T07:20:12;9.52;;;4.72;;
48911;SDS011;34722;52.108;5.044;2023-08-21T07:22:38;11.38;;;4.65;;
48911;SDS011;34722;52.108;5.044;2023-08-21T07:25:04;7.70;;;4.40;;
48911;SDS011;34722;52.108;5.044;2023-08-21T07:27:30;8.10;;;3.90;;
48911;SDS011;34722;52.108;5.044;2023-08-21T07:29:56;8.15;;;3.67;;
48911;SDS011;34722;52.108;5.044;2023-08-21T07:32:22;9.15;;;3.83;;
48911;SDS011;34722;52.108;5.044;2023-08-21T07:34:51;5.55;;;3.97;;
48911;SDS011;34722;52.108;5.044;2023-08-21T07:37:17;7.75;;;4.13;;
48911;SDS011;34722;52.108;5.044;2023-08-21T07:39:43;6.57;;;3.63;;
48911;SDS011;34722;52.108;5.044;2023-08-21T07:45:19;6.93;;;3.35;;
48911;SDS011;34722;52.108;5.044;2023-08-21T07:47:45;7.07;;;3.75;;
48911;SDS011;34722;52.108;5.044;2023-08-21T07:50:14;10.02;;;3.22;;
48911;SDS011;34722;52.108;5.044;2023-08-21T07:52:48;6.90;;;3.67;;
48911;SDS011;34722;52.108;5.044;2023-08-21T07:55:34;6.53;;;3.42;;
48911;SDS011;34722;52.108;5.044;2023-08-21T07:57:59;9.68;;;3.50;;
48911;SDS011;34722;52.108;5.044;2023-08-21T08:00:25;6.45;;;3.17;;
48911;SDS011;34722;52.108;5.044;2023-08-21T08:03:05;9.70;;;3.53;;
48911;SDS011;34722;52.108;5.044;2023-08-21T08:05:31;5.87;;;3.33;;
48911;SDS011;34722;52.108;5.044;2023-08-21T08:07:58;8.73;;;3.92;;
48911;SDS011;34722;52.108;5.044;2023-08-21T08:10:24;8.55;;;3.83;;
48911;SDS011;34722;52.108;5.044;2023-08-21T08:12:57;6.70;;;3.80;;
48911;SDS011;34722;52.108;5.044;2023-08-21T08:15:23;6.93;;;3.95;;
48911;SDS011;34722;52.108;5.044;2023-08-21T08:17:49;7.13;;;3.55;;
48911;SDS011;34722;52.108;5.044;2023-08-21T08:20:18;8.20;;;4.50;;
48911;SDS011;34722;52.108;5.044;2023-08-21T08:22:44;8.43;;;4.47;;
48911;SDS011;34722;52.108;5.044;2023-08-21T08:25:13;12.27;;;4.75;;
48911;SDS011;34722;52.108;5.044;2023-08-21T08:27:39;6.47;;;3.65;;
48911;SDS011;34722;52.108;5.044;2023-08-21T08:30:05;7.05;;;3.88;;
48911;SDS011;34722;52.108;5.044;2023-08-21T08:32:31;7.22;;;4.20;;
48911;SDS011;34722;52.108;5.044;2023-08-21T08:34:57;7.15;;;3.65;;
48911;SDS011;34722;52.108;5.044;2023-08-21T08:37:23;6.78;;;4.05;;
48911;SDS011;34722;52.108;5.044;2023-08-21T08:39:49;7.63;;;4.20;;
48911;SDS011;34722;52.108;5.044;2023-08-21T08:42:15;6.40;;;3.60;;
48911;SDS011;34722;52.108;5.044;2023-08-21T08:44:41;8.15;;;3.72;;
48911;SDS011;34722;52.108;5.044;2023-08-21T08:47:08;9.38;;;4.53;;
48911;SDS011;34722;52.108;5.044;2023-08-21T08:49:35;8.80;;;3.42;;
48911;SDS011;34722;52.108;5.044;2023-08-21T08:52:01;5.70;;;3.92;;
48911;SDS011;34722;52.108;5.044;2023-08-21T08:54:27;8.98;;;4.10;;
48911;SDS011;34722;52.108;5.044;2023-08-21T08:56:56;7.22;;;3.83;;
48911;SDS011;34722;52.108;5.044;2023-08-21T08:59:22;8.48;;;4.47;;
48911;SDS011;34722;52.108;5.044;2023-08-21T09:01:47;11.65;;;4.80;;
48911;SDS011;34722;52.108;5.044;2023-08-21T09:04:13;7.22;;;3.80;;
48911;SDS011;34722;52.108;5.044;2023-08-21T09:06:39;9.30;;;3.78;;
48911;SDS011;34722;52.108;5.044;2023-08-21T09:09:08;7.05;;;3.70;;
48911;SDS011;34722;52.108;5.044;2023-08-21T09:11:42;8.23;;;4.05;;
48911;SDS011;34722;52.108;5.044;2023-08-21T09:14:08;6.45;;;3.30;;
48911;SDS011;34722;52.108;5.044;2023-08-21T09:16:35;8.50;;;3.63;;
48911;SDS011;34722;52.108;5.044;2023-08-21T09:19:04;5.25;;;3.92;;
48911;SDS011;34722;52.108;5.044;2023-08-21T09:21:30;5.85;;;3.13;;
48911;SDS011;34722;52.108;5.044;2023-08-21T09:23:58;5.57;;;2.70;;
48911;SDS011;34722;52.108;5.044;2023-08-21T09:26:26;8.32;;;3.25;;
48911;SDS011;34722;52.108;5.044;2023-08-21T09:28:58;5.80;;;2.78;;
48911;SDS011;34722;52.108;5.044;2023-08-21T09:31:33;8.25;;;2.53;;
48911;SDS011;34722;52.108;5.044;2023-08-21T09:36:56;5.68;;;3.28;;
48911;SDS011;34722;52.108;5.044;2023-08-21T09:39:25;5.28;;;2.72;;
48911;SDS011;34722;52.108;5.044;2023-08-21T09:41:58;6.18;;;2.60;;
48911;SDS011;34722;52.108;5.044;2023-08-21T09:44:24;5.88;;;3.03;;
48911;SDS011;34722;52.108;5.044;2023-08-21T09:46:50;6.18;;;3.25;;
48911;SDS011;34722;52.108;5.044;2023-08-21T09:49:15;4.05;;;3.03;;
48911;SDS011;34722;52.108;5.044;2023-08-21T09:51:43;8.55;;;2.70;;
48911;SDS011;34722;52.108;5.044;2023-08-21T09:54:12;6.05;;;2.70;;
48911;SDS011;34722;52.108;5.044;2023-08-21T09:56:44;6.75;;;3.13;;
48911;SDS011;34722;52.108;5.044;2023-08-21T09:59:13;6.80;;;3.35;;
48911;SDS011;34722;52.108;5.044;2023-08-21T10:01:42;4.63;;;2.50;;
48911;SDS011;34722;52.108;5.044;2023-08-21T10:04:16;4.88;;;2.85;;
48911;SDS011;34722;52.108;5.044;2023-08-21T10:06:43;7.57;;;2.47;;
48911;SDS011;34722;52.108;5.044;2023-08-21T10:09:19;5.35;;;3.03;;
48911;SDS011;34722;52.108;5.044;2023-08-21T10:11:48;7.38;;;3.15;;
48911;SDS011;34722;52.108;5.044;2023-08-21T10:14:14;6.85;;;3.70;;
48911;SDS011;34722;52.108;5.044;2023-08-21T10:16:56;6.20;;;3.10;;
48911;SDS011;34722;52.108;5.044;2023-08-21T10:19:21;7.32;;;2.78;;
48911;SDS011;34722;52.108;5.044;2023-08-21T10:21:48;6.68;;;3.25;;
48911;SDS011;34722;52.108;5.044;2023-08-21T10:24:25;8.45;;;3.60;;
48911;SDS011;34722;52.108;5.044;2023-08-21T10:27:01;5.63;;;3.00;;
48911;SDS011;34722;52.108;5.044;2023-08-21T10:29:27;5.75;;;2.97;;
48911;SDS011;34722;52.108;5.044;2023-08-21T10:32:02;7.65;;;3.60;;
48911;SDS011;34722;52.108;5.044;2023-08-21T10:34:41;7.57;;;3.72;;
48911;SDS011;34722;52.108;5.044;2023-08-21T10:37:19;3.75;;;2.38;;
48911;SDS011;34722;52.108;5.044;2023-08-21T10:39:55;3.95;;;2.00;;
48911;SDS011;34722;52.108;5.044;2023-08-21T10:42:37;3.28;;;2.00;;
48911;SDS011;34722;52.108;5.044;2023-08-21T10:45:13;3.60;;;2.13;;
48911;SDS011;34722;52.108;5.044;2023-08-21T10:47:38;5.37;;;2.57;;
48911;SDS011;34722;52.108;5.044;2023-08-21T10:50:06;3.70;;;2.20;;
48911;SDS011;34722;52.108;5.044;2023-08-21T10:52:39;5.88;;;1.80;;
48911;SDS011;34722;52.108;5.044;2023-08-21T10:55:14;5.80;;;2.42;;
48911;SDS011;34722;52.108;5.044;2023-08-21T10:57:49;5.85;;;2.08;;
48911;SDS011;34722;52.108;5.044;2023-08-21T11:00:18;3.33;;;2.17;;
48911;SDS011;34722;52.108;5.044;2023-08-21T11:02:46;6.05;;;2.47;;
48911;SDS011;34722;52.108;5.044;2023-08-21T11:05:15;2.72;;;2.22;;
48911;SDS011;34722;52.108;5.044;2023-08-21T11:07:45;6.70;;;2.25;;
48911;SDS011;34722;52.108;5.044;2023-08-21T11:10:13;4.28;;;1.95;;
48911;SDS011;34722;52.108;5.044;2023-08-21T11:15:15;3.42;;;1.67;;
48911;SDS011;34722;52.108;5.044;2023-08-21T11:17:42;3.25;;;1.85;;
48911;SDS011;34722;52.108;5.044;2023-08-21T11:20:08;2.30;;;1.52;;
48911;SDS011;34722;52.108;5.044;2023-08-21T11:22:34;7.18;;;2.88;;
48911;SDS011;34722;52.108;5.044;2023-08-21T11:25:00;3.53;;;1.70;;
48911;SDS011;34722;52.108;5.044;2023-08-21T11:27:29;3.13;;;1.70;;
48911;SDS011;34722;52.108;5.044;2023-08-21T11:30:06;4.55;;;2.10;;
48911;SDS011;34722;52.108;5.044;2023-08-21T11:33:05;4.90;;;2.10;;
48911;SDS011;34722;52.108;5.044;2023-08-21T11:36:11;1.83;;;1.50;;
48911;SDS011;34722;52.108;5.044;2023-08-21T11:41:52;2.40;;;1.55;;
48911;SDS011;34722;52.108;5.044;2023-08-21T11:44:54;4.30;;;1.58;;
48911;SDS011;34722;52.108;5.044;2023-08-21T11:47:32;2.88;;;1.70;;
48911;SDS011;34722;52.108;5.044;2023-08-21T11:50:07;3.50;;;1.73;;
48911;SDS011;34722;52.108;5.044;2023-08-21T11:52:38;2.65;;;2.10;;
48911;SDS011;34722;52.108;5.044;2023-08-21T11:55:13;4.80;;;2.25;;
48911;SDS011;34722;52.108;5.044;2023-08-21T11:57:46;7.72;;;2.10;;
48911;SDS011;34722;52.108;5.044;2023-08-21T12:00:16;7.25;;;2.30;;
48911;SDS011;34722;52.108;5.044;2023-08-21T12:02:54;5.60;;;2.47;;
48911;SDS011;34722;52.108;5.044;2023-08-21T12:05:31;4.18;;;2.40;;
48911;SDS011;34722;52.108;5.044;2023-08-21T12:07:58;6.57;;;2.10;;
48911;SDS011;34722;52.108;5.044;2023-08-21T12:10:42;3.25;;;1.92;;
48911;SDS011;34722;52.108;5.044;2023-08-21T12:13:08;2.67;;;2.22;;
48911;SDS011;34722;52.108;5.044;2023-08-21T12:15:34;5.40;;;1.90;;
48911;SDS011;34722;52.108;5.044;2023-08-21T12:18:01;5.15;;;1.90;;
48911;SDS011;34722;52.108;5.044;2023-08-21T12:20:27;6.47;;;2.45;;
48911;SDS011;34722;52.108;5.044;2023-08-21T12:22:59;5.55;;;2.15;;
48911;SDS011;34722;52.108;5.044;2023-08-21T12:25:34;6.72;;;2.00;;
48911;SDS011;34722;52.108;5.044;2023-08-21T12:28:00;5.53;;;1.75;;
48911;SDS011;34722;52.108;5.044;2023-08-21T12:30:38;4.63;;;2.00;;
48911;SDS011;34722;52.108;5.044;2023-08-21T12:33:07;6.63;;;2.40;;
48911;SDS011;34722;52.108;5.044;2023-08-21T12:35:33;9.27;;;2.15;;
48911;SDS011;34722;52.108;5.044;2023-08-21T12:37:58;4.50;;;2.08;;
48911;SDS011;34722;52.108;5.044;2023-08-21T12:40:30;4.30;;;2.13;;
48911;SDS011;34722;52.108;5.044;2023-08-21T12:42:56;4.38;;;2.22;;
48911;SDS011;34722;52.108;5.044;2023-08-21T12:45:22;7.70;;;1.80;;
48911;SDS011;34722;52.108;5.044;2023-08-21T12:47:48;2.65;;;1.73;;
48911;SDS011;34722;52.108;5.044;2023-08-21T12:50:16;5.22;;;1.70;;
48911;SDS011;34722;52.108;5.044;2023-08-21T12:52:41;7.85;;;2.08;;
48911;SDS011;34722;52.108;5.044;2023-08-21T12:55:07;4.57;;;1.90;;
48911;SDS011;34722;52.108;5.044;2023-08-21T12:57:34;12.75;;;2.25;;
48911;SDS011;34722;52.108;5.044;2023-08-21T13:00:00;3.53;;;1.65;;
48911;SDS011;34722;52.108;5.044;2023-08-21T13:02:26;4.95;;;2.08;;
48911;SDS011;34722;52.108;5.044;2023-08-21T13:04:52;5.60;;;2.05;;
48911;SDS011;34722;52.108;5.044;2023-08-21T13:07:19;6.30;;;1.95;;
48911;SDS011;34722;52.108;5.044;2023-08-21T13:09:45;5.57;;;2.30;;
48911;SDS011;34722;52.108;5.044;2023-08-21T13:12:10;5.10;;;2.40;;
48911;SDS011;34722;52.108;5.044;2023-08-21T13:14:36;10.43;;;2.03;;
48911;SDS011;34722;52.108;5.044;2023-08-21T13:17:02;7.88;;;2.45;;
48911;SDS011;34722;52.108;5.044;2023-08-21T13:19:28;5.40;;;2.42;;
48911;SDS011;34722;52.108;5.044;2023-08-21T13:21:53;4.90;;;2.17;;
48911;SDS011;34722;52.108;5.044;2023-08-21T13:24:19;4.07;;;2.20;;
48911;SDS011;34722;52.108;5.044;2023-08-21T13:26:50;5.60;;;1.88;;
48911;SDS011;34722;52.108;5.044;2023-08-21T13:29:16;6.38;;;2.38;;
48911;SDS011;34722;52.108;5.044;2023-08-21T13:31:42;4.72;;;2.15;;
48911;SDS011;34722;52.108;5.044;2023-08-21T13:34:08;4.88;;;2.25;;
48911;SDS011;34722;52.108;5.044;2023-08-21T13:36:37;2.13;;;1.65;;
48911;SDS011;34722;52.108;5.044;2023-08-21T13:39:03;5.00;;;2.13;;
48911;SDS011;34722;52.108;5.044;2023-08-21T13:41:30;3.17;;;1.90;;
48911;SDS011;34722;52.108;5.044;2023-08-21T13:43:59;4.47;;;1.95;;
48911;SDS011;34722;52.108;5.044;2023-08-21T13:46:25;8.07;;;2.35;;
48911;SDS011;34722;52.108;5.044;2023-08-21T13:48:51;3.05;;;1.77;;
48911;SDS011;34722;52.108;5.044;2023-08-21T13:51:16;3.55;;;1.92;;
48911;SDS011;34722;52.108;5.044;2023-08-21T13:53:42;3.97;;;1.83;;
48911;SDS011;34722;52.108;5.044;2023-08-21T13:56:07;3.65;;;1.90;;
48911;SDS011;34722;52.108;5.044;2023-08-21T13:58:34;4.47;;;2.15;;
48911;SDS011;34722;52.108;5.044;2023-08-21T14:00:59;4.43;;;1.60;;
48911;SDS011;34722;52.108;5.044;2023-08-21T14:03:35;5.28;;;2.58;;
48911;SDS011;34722;52.108;5.044;2023-08-21T14:06:07;5.40;;;1.90;;
48911;SDS011;34722;52.108;5.044;2023-08-21T14:08:54;3.97;;;2.20;;
48911;SDS011;34722;52.108;5.044;2023-08-21T14:11:23;8.40;;;2.22;;
48911;SDS011;34722;52.108;5.044;2023-08-21T14:13:51;5.03;;;2.00;;
48911;SDS011;34722;52.108;5.044;2023-08-21T14:16:17;4.90;;;2.38;;
48911;SDS011;34722;52.108;5.044;2023-08-21T14:18:46;8.52;;;2.92;;
48911;SDS011;34722;52.108;5.044;2023-08-21T14:21:12;5.20;;;2.13;;
48911;SDS011;34722;52.108;5.044;2023-08-21T14:23:45;5.35;;;1.90;;
48911;SDS011;34722;52.108;5.044;2023-08-21T14:26:14;5.05;;;2.10;;
48911;SDS011;34722;52.108;5.044;2023-08-21T14:28:39;5.18;;;1.90;;
48911;SDS011;34722;52.108;5.044;2023-08-21T14:31:05;6.60;;;2.22;;
48911;SDS011;34722;52.108;5.044;2023-08-21T14:33:31;5.30;;;2.45;;
48911;SDS011;34722;52.108;5.044;2023-08-21T14:35:56;6.90;;;2.63;;
48911;SDS011;34722;52.108;5.044;2023-08-21T14:38:22;3.97;;;2.20;;
48911;SDS011;34722;52.108;5.044;2023-08-21T16:45:29;6.40;;;2.53;;
48911;SDS011;34722;52.108;5.044;2023-08-21T16:47:55;3.80;;;2.10;;
48911;SDS011;34722;52.108;5.044;2023-08-21T16:50:20;5.68;;;2.10;;
48911;SDS011;34722;52.108;5.044;2023-08-21T16:52:46;4.82;;;2.22;;
48911;SDS011;34722;52.108;5.044;2023-08-21T16:55:12;5.75;;;2.63;;
48911;SDS011;34722;52.108;5.044;2023-08-21T16:57:37;6.82;;;2.45;;
48911;SDS011;34722;52.108;5.044;2023-08-21T17:00:04;3.33;;;2.20;;
48911;SDS011;34722;52.108;5.044;2023-08-21T17:02:34;5.38;;;2.10;;
48911;SDS011;34722;52.108;5.044;2023-08-21T17:05:01;5.82;;;2.20;;
48911;SDS011;34722;52.108;5.044;2023-08-21T17:07:30;4.00;;;1.92;;
48911;SDS011;34722;52.108;5.044;2023-08-21T17:10:03;3.63;;;2.07;;
48911;SDS011;34722;52.108;5.044;2023-08-21T17:12:36;7.47;;;2.17;;